Time;durP1;ratioP1;P1;durP2;ratioP2;P2;SDS_P1;SDS_P2;PMS_P1;PMS_P2;Temp;Humidity;BMP_temperature;BMP_pressure;BME280_temperature;BME280_humidity;BME280_pressure;Samples;Min_cycle;Max_cycle;Signal;HPM_P1;HPM_P2
2021/12/10 00:00:33;;;;;;;;;;;1.10;99.90;;;;;;5072851;28;19989;-51
2021/12/10 00:03:01;;;;;;;;;;;1.10;99.90;;;;;;5071076;28;19925;-52
2021/12/10 00:05:29;;;;;;;;;;;1.00;99.90;;;;;;5060516;28;19929;-53
2021/12/10 00:07:57;;;;;;;;;;;0.80;99.90;;;;;;5074100;28;19928;-51
2021/12/10 00:10:25;;;;;;;;;;;0.90;99.90;;;;;;5058799;28;19932;-51
2021/12/10 00:12:56;;;;;;;;;;;1.10;99.90;;;;;;5053553;28;19929;-51
2021/12/10 00:15:24;;;;;;;;;;;1.10;99.90;;;;;;5054123;28;19929;-51
2021/12/10 00:17:52;;;;;;;;;;;0.90;99.90;;;;;;5064503;28;19978;-53
2021/12/10 00:20:20;;;;;;;;;;;1.00;99.90;;;;;;5073056;28;19928;-52
2021/12/10 00:22:55;;;;;;;;;;;0.80;99.90;;;;;;5072832;28;19977;-52
2021/12/10 00:25:24;;;;;;;;;;;0.70;99.90;;;;;;5071985;28;19931;-52
2021/12/10 00:27:55;;;;;;;;;;;0.60;99.90;;;;;;5073622;28;19928;-52
2021/12/10 00:30:26;;;;;;;;;;;0.70;99.90;;;;;;5072795;28;20014;-52
2021/12/10 00:33:02;;;;;;;;;;;0.80;99.90;;;;;;5073278;28;19932;-51
2021/12/10 00:35:30;;;;;;;;;;;0.70;99.90;;;;;;5073032;28;19931;-51
2021/12/10 00:37:57;;;;;;;;;;;0.70;99.90;;;;;;5073212;28;19982;-52
2021/12/10 00:40:25;;;;;;;;;;;0.60;99.90;;;;;;5068381;28;19935;-51
2021/12/10 00:42:55;;;;;;;;;;;0.70;99.90;;;;;;5073448;28;19924;-51
2021/12/10 00:45:26;;;;;;;;;;;0.70;99.90;;;;;;5073413;28;19970;-53
2021/12/10 00:47:54;;;;;;;;;;;0.70;99.90;;;;;;5072655;28;19924;-54
2021/12/10 00:50:23;;;;;;;;;;;0.80;99.90;;;;;;5072424;28;19929;-52
2021/12/10 00:52:54;;;;;;;;;;;0.80;99.90;;;;;;5072021;28;19932;-51
2021/12/10 00:55:22;;;;;;;;;;;0.70;99.90;;;;;;5072917;28;20458;-50
2021/12/10 00:57:53;;;;;;;;;;;0.60;99.90;;;;;;5072920;28;19924;-52
2021/12/10 01:00:21;;;;;;;;;;;0.40;99.90;;;;;;5072406;28;19931;-56
2021/12/10 01:02:52;;;;;;;;;;;0.30;99.90;;;;;;5072407;28;19925;-52
2021/12/10 01:05:20;;;;;;;;;;;0.20;99.90;;;;;;5072694;28;19970;-51
2021/12/10 01:07:47;;;;;;;;;;;0.20;99.90;;;;;;5071984;28;19924;-52
2021/12/10 01:10:16;;;;;;;;;;;0.30;99.90;;;;;;5068862;28;20344;-52
2021/12/10 01:12:45;;;;;;;;;;;0.00;99.90;;;;;;5071144;28;20401;-54
2021/12/10 01:15:36;;;;;;;;;;;-0.10;99.90;;;;;;5072601;28;19925;-53
2021/12/10 01:23:49;;;;;;;;;;;-0.20;99.90;;;;;;5071812;28;19947;-52
2021/12/10 01:26:26;;;;;;;;;;;0.00;99.90;;;;;;5069757;28;19924;-53
2021/12/10 01:28:54;;;;;;;;;;;-0.10;99.90;;;;;;5072678;28;19924;-52
2021/12/10 01:31:21;;;;;;;;;;;0.00;99.90;;;;;;5071317;28;19932;-54
2021/12/10 01:33:51;;;;;;;;;;;0.00;99.90;;;;;;5072927;28;20333;-50
2021/12/10 01:36:18;;;;;;;;;;;0.10;99.90;;;;;;5071715;28;19924;-51
2021/12/10 01:38:46;;;;;;;;;;;0.10;99.90;;;;;;5071895;28;19928;-52
2021/12/10 01:41:16;;;;;;;;;;;0.00;99.90;;;;;;5071840;28;19925;-51
2021/12/10 01:43:43;;;;;;;;;;;0.00;99.90;;;;;;5072261;28;19932;-51
2021/12/10 01:46:13;;;;;;;;;;;0.20;99.90;;;;;;5071784;28;19925;-52
2021/12/10 01:48:42;;;;;;;;;;;0.30;99.90;;;;;;5072092;28;19931;-51
2021/12/10 01:51:11;;;;;;;;;;;0.10;99.90;;;;;;5071297;28;19929;-51
2021/12/10 01:53:40;;;;;;;;;;;0.00;99.90;;;;;;5071387;28;19935;-51
2021/12/10 01:56:09;;;;;;;;;;;-0.10;99.90;;;;;;5072458;28;20386;-51
2021/12/10 01:58:36;;;;;;;;;;;-0.20;99.90;;;;;;5072187;28;20275;-52
2021/12/10 02:01:06;;;;;;;;;;;-0.30;99.90;;;;;;5071137;28;19931;-53
2021/12/10 02:03:33;;;;;;;;;;;-0.20;99.90;;;;;;5068917;28;20413;-52
2021/12/10 02:05:59;;;;;;;;;;;-0.30;99.90;;;;;;5071759;28;19928;-51
2021/12/10 02:08:28;;;;;;;;;;;-0.20;99.90;;;;;;5071505;28;19924;-52
2021/12/10 02:10:55;;;;;;;;;;;-0.40;99.90;;;;;;5069828;28;19978;-52
2021/12/10 02:13:21;;;;;;;;;;;-0.40;99.90;;;;;;5071648;28;20034;-52
2021/12/10 02:15:49;;;;;;;;;;;-0.30;99.90;;;;;;5071821;28;19986;-53
2021/12/10 02:18:16;;;;;;;;;;;0.00;99.90;;;;;;5071409;28;19990;-52
2021/12/10 02:20:50;;;;;;;;;;;0.00;99.90;;;;;;5066892;28;19994;-52
2021/12/10 02:23:17;;;;;;;;;;;0.00;99.90;;;;;;5069875;28;19924;-53
2021/12/10 02:25:43;;;;;;;;;;;0.00;99.90;;;;;;5072070;28;20444;-52
2021/12/10 02:28:11;;;;;;;;;;;-0.20;99.90;;;;;;5071524;28;19929;-51
2021/12/10 02:30:39;;;;;;;;;;;-0.30;99.90;;;;;;5071166;28;19924;-52
2021/12/10 02:33:06;;;;;;;;;;;-0.40;99.90;;;;;;5071020;28;19978;-51
2021/12/10 02:35:33;;;;;;;;;;;-0.50;99.90;;;;;;5065982;28;19931;-52
2021/12/10 02:38:02;;;;;;;;;;;-0.50;99.90;;;;;;5071248;28;19924;-52
2021/12/10 02:40:30;;;;;;;;;;;-0.40;99.90;;;;;;5070758;28;19978;-53
2021/12/10 02:42:57;;;;;;;;;;;-0.40;99.90;;;;;;5071403;28;20023;-51
2021/12/10 02:45:26;;;;;;;;;;;-0.50;99.90;;;;;;5071803;28;19971;-53
2021/12/10 02:47:54;;;;;;;;;;;-0.40;99.90;;;;;;5072915;28;19932;-52
2021/12/10 02:50:22;;;;;;;;;;;-0.40;99.90;;;;;;5074539;28;19924;-52
2021/12/10 02:52:50;;;;;;;;;;;-0.30;99.90;;;;;;5075075;28;19924;-53
2021/12/10 02:55:18;;;;;;;;;;;-0.10;99.90;;;;;;5074686;28;19995;-52
2021/12/10 02:57:45;;;;;;;;;;;-0.40;99.90;;;;;;5073829;28;19928;-53
2021/12/10 03:00:14;;;;;;;;;;;-0.40;99.90;;;;;;5075101;28;19978;-52
2021/12/10 03:02:41;;;;;;;;;;;-0.40;99.90;;;;;;5075008;28;19931;-51
2021/12/10 03:05:08;;;;;;;;;;;-0.40;99.90;;;;;;5075396;28;19932;-51
2021/12/10 03:07:36;;;;;;;;;;;-0.50;99.90;;;;;;5075122;28;19929;-52
2021/12/10 03:10:05;;;;;;;;;;;-0.60;99.90;;;;;;5074594;28;19928;-60
2021/12/10 03:12:34;;;;;;;;;;;-0.70;99.90;;;;;;5074341;28;20303;-52
2021/12/10 03:15:00;;;;;;;;;;;-0.70;99.90;;;;;;5075493;28;20046;-52
2021/12/10 03:17:29;;;;;;;;;;;-0.70;99.90;;;;;;5075208;28;19986;-53
2021/12/10 03:19:56;;;;;;;;;;;-0.60;99.90;;;;;;5075393;28;19989;-52
2021/12/10 03:22:24;;;;;;;;;;;-0.40;99.90;;;;;;5073698;28;19924;-52
2021/12/10 03:24:52;;;;;;;;;;;-0.50;99.90;;;;;;5074923;28;19928;-52
2021/12/10 03:27:20;;;;;;;;;;;-0.40;99.90;;;;;;5075496;28;19959;-51
2021/12/10 03:29:49;;;;;;;;;;;-0.40;99.90;;;;;;5075151;28;20382;-51
2021/12/10 03:32:18;;;;;;;;;;;-0.50;99.90;;;;;;5071506;28;19931;-51
2021/12/10 03:34:45;;;;;;;;;;;-0.60;99.90;;;;;;5059558;28;20394;-51
2021/12/10 03:37:13;;;;;;;;;;;-0.70;99.90;;;;;;5075039;28;20513;-52
2021/12/10 03:39:39;;;;;;;;;;;-0.60;99.90;;;;;;5073741;28;19925;-51
2021/12/10 03:42:07;;;;;;;;;;;-0.60;99.90;;;;;;5074355;28;19932;-51
2021/12/10 03:44:34;;;;;;;;;;;-0.50;99.90;;;;;;5075179;28;19929;-51
2021/12/10 03:47:03;;;;;;;;;;;-0.20;99.90;;;;;;5075012;28;19924;-51
2021/12/10 03:49:30;;;;;;;;;;;-0.50;99.90;;;;;;5074736;28;20288;-51
2021/12/10 03:51:57;;;;;;;;;;;-0.30;99.90;;;;;;5073883;28;19924;-51
2021/12/10 03:54:24;;;;;;;;;;;-0.50;99.90;;;;;;5075015;28;19928;-53
2021/12/10 03:56:51;;;;;;;;;;;-0.60;99.90;;;;;;5075061;28;19924;-51
2021/12/10 03:59:19;;;;;;;;;;;-0.60;99.90;;;;;;5074340;28;19978;-50
2021/12/10 04:01:47;;;;;;;;;;;-0.60;99.90;;;;;;5074002;28;19984;-52
2021/12/10 04:04:17;;;;;;;;;;;-0.50;99.90;;;;;;5074282;28;19970;-51
2021/12/10 04:06:44;;;;;;;;;;;-0.40;99.90;;;;;;5074535;28;19924;-52
2021/12/10 04:09:10;;;;;;;;;;;-0.30;99.90;;;;;;5070568;28;19929;-52
2021/12/10 04:11:37;;;;;;;;;;;-0.50;99.90;;;;;;5069166;28;19929;-51
2021/12/10 04:14:05;;;;;;;;;;;-0.70;99.90;;;;;;5073961;28;19924;-51
2021/12/10 04:16:32;;;;;;;;;;;-0.70;99.90;;;;;;5068847;28;20399;-51
2021/12/10 04:19:00;;;;;;;;;;;-0.80;99.90;;;;;;5072067;28;19924;-52
2021/12/10 04:21:29;;;;;;;;;;;-0.80;99.90;;;;;;5073453;28;20390;-52
2021/12/10 04:23:56;;;;;;;;;;;-0.70;99.90;;;;;;5074186;28;19925;-51
2021/12/10 04:26:24;;;;;;;;;;;-0.70;99.90;;;;;;5074305;28;19925;-51
2021/12/10 04:28:51;;;;;;;;;;;-0.70;99.90;;;;;;5074310;28;19925;-52
2021/12/10 04:31:18;;;;;;;;;;;-0.90;99.90;;;;;;5073050;28;19924;-51
2021/12/10 04:33:45;;;;;;;;;;;-0.90;99.90;;;;;;5074303;28;20023;-52
2021/12/10 04:36:12;;;;;;;;;;;-0.80;99.90;;;;;;5074084;28;19970;-51
2021/12/10 04:38:40;;;;;;;;;;;-0.80;99.90;;;;;;5074180;28;19924;-53
2021/12/10 04:41:08;;;;;;;;;;;-0.70;99.90;;;;;;5071247;28;19924;-52
2021/12/10 04:43:36;;;;;;;;;;;-0.80;99.90;;;;;;5063615;28;19925;-53
2021/12/10 04:46:04;;;;;;;;;;;-0.90;99.90;;;;;;5074135;28;20374;-52
2021/12/10 04:48:31;;;;;;;;;;;-0.60;99.90;;;;;;5074100;28;20349;-51
2021/12/10 04:50:58;;;;;;;;;;;-0.60;99.90;;;;;;5072983;28;19970;-52
2021/12/10 04:53:25;;;;;;;;;;;-0.30;99.90;;;;;;5073743;28;19998;-51
2021/12/10 04:55:53;;;;;;;;;;;-0.20;99.90;;;;;;5073681;28;19925;-50
2021/12/10 04:58:20;;;;;;;;;;;-0.40;99.90;;;;;;5073409;28;19970;-52
2021/12/10 05:00:48;;;;;;;;;;;-0.60;99.90;;;;;;5072951;28;19924;-53
2021/12/10 05:03:16;;;;;;;;;;;-0.80;99.90;;;;;;5073381;28;19960;-52
2021/12/10 05:05:44;;;;;;;;;;;-1.00;99.90;;;;;;5072068;28;19924;-51
2021/12/10 05:08:12;;;;;;;;;;;-1.10;99.90;;;;;;5073279;28;19925;-51
2021/12/10 05:10:39;;;;;;;;;;;-1.10;99.90;;;;;;5056679;28;19924;-52
2021/12/10 05:13:07;;;;;;;;;;;-1.00;99.90;;;;;;5057926;28;19928;-53
2021/12/10 05:15:37;;;;;;;;;;;-1.00;99.90;;;;;;5072812;28;20372;-52
2021/12/10 05:18:04;;;;;;;;;;;-0.90;99.90;;;;;;5071536;28;20677;-51
2021/12/10 05:20:32;;;;;;;;;;;-0.80;99.90;;;;;;5070446;28;20022;-50
2021/12/10 05:22:59;;;;;;;;;;;-0.80;99.90;;;;;;5071587;28;19925;-50
2021/12/10 05:25:27;;;;;;;;;;;-0.70;99.90;;;;;;5072775;28;19925;-52
2021/12/10 05:27:54;;;;;;;;;;;-0.80;99.90;;;;;;5072827;28;19970;-53
2021/12/10 05:30:23;;;;;;;;;;;-0.70;99.90;;;;;;5071870;28;19929;-55
2021/12/10 05:32:50;;;;;;;;;;;-0.70;99.90;;;;;;5072063;28;19986;-51
2021/12/10 05:35:17;;;;;;;;;;;-0.60;99.90;;;;;;5072746;28;19978;-51
2021/12/10 05:37:44;;;;;;;;;;;-0.60;99.90;;;;;;5072526;28;20353;-52
2021/12/10 05:40:12;;;;;;;;;;;-0.70;99.90;;;;;;5072318;28;19970;-52
2021/12/10 05:42:39;;;;;;;;;;;-0.70;99.90;;;;;;5071935;28;19924;-51
2021/12/10 05:45:07;;;;;;;;;;;-0.60;99.90;;;;;;5071797;28;19970;-53
2021/12/10 05:47:35;;;;;;;;;;;-0.80;99.90;;;;;;5071943;28;19924;-50
2021/12/10 05:50:02;;;;;;;;;;;-1.00;99.90;;;;;;5072245;28;19974;-51
2021/12/10 05:52:29;;;;;;;;;;;-1.00;99.90;;;;;;5066436;28;19979;-51
2021/12/10 05:54:55;;;;;;;;;;;-1.00;99.90;;;;;;5064416;28;20045;-51
2021/12/10 05:57:22;;;;;;;;;;;-0.80;99.90;;;;;;5071888;28;19985;-53
2021/12/10 05:59:49;;;;;;;;;;;-0.80;99.90;;;;;;5071937;28;19970;-52
2021/12/10 06:02:16;;;;;;;;;;;-0.90;99.90;;;;;;5071248;28;19928;-51
2021/12/10 06:04:44;;;;;;;;;;;-0.90;99.90;;;;;;5072378;28;19925;-52
2021/12/10 06:07:11;;;;;;;;;;;-1.20;99.90;;;;;;5071932;28;19924;-52
2021/12/10 06:09:38;;;;;;;;;;;-1.20;99.90;;;;;;5064350;28;19932;-51
2021/12/10 06:12:05;;;;;;;;;;;-1.20;99.90;;;;;;5051754;28;19925;-52
2021/12/10 06:14:32;;;;;;;;;;;-1.30;99.90;;;;;;5070458;28;19924;-51
2021/12/10 06:16:59;;;;;;;;;;;-1.30;99.90;;;;;;5067864;28;19925;-50
2021/12/10 06:19:25;;;;;;;;;;;-1.10;99.90;;;;;;5052070;28;20369;-52
2021/12/10 06:21:54;;;;;;;;;;;-1.20;99.90;;;;;;5062494;28;19970;-50
2021/12/10 06:24:20;;;;;;;;;;;-1.20;99.90;;;;;;5076074;28;19985;-50
2021/12/10 06:26:47;;;;;;;;;;;-1.10;99.90;;;;;;5076617;28;19928;-49
2021/12/10 06:29:14;;;;;;;;;;;-1.20;99.90;;;;;;5076249;28;19931;-50
2021/12/10 06:31:41;;;;;;;;;;;-1.20;99.90;;;;;;5075131;28;19928;-50
2021/12/10 06:34:08;;;;;;;;;;;-1.10;99.90;;;;;;5076030;28;19929;-50
2021/12/10 06:36:35;;;;;;;;;;;-1.10;99.90;;;;;;5075973;28;20382;-49
2021/12/10 06:39:04;;;;;;;;;;;-1.00;99.90;;;;;;5075979;28;19932;-50
2021/12/10 06:41:31;;;;;;;;;;;-1.00;99.90;;;;;;5075285;28;19924;-50
2021/12/10 06:43:58;;;;;;;;;;;-0.90;99.90;;;;;;5076139;28;19928;-49
2021/12/10 06:46:24;;;;;;;;;;;-1.00;99.90;;;;;;5076059;28;20448;-50
2021/12/10 06:48:52;;;;;;;;;;;-1.10;99.90;;;;;;5075866;28;19970;-50
2021/12/10 06:51:20;;;;;;;;;;;-1.20;99.90;;;;;;5074715;28;19924;-50
2021/12/10 06:53:47;;;;;;;;;;;-1.20;99.90;;;;;;5075457;28;19924;-50
2021/12/10 06:56:17;;;;;;;;;;;-1.20;99.90;;;;;;5075852;28;19924;-50
2021/12/10 06:58:44;;;;;;;;;;;-1.10;99.90;;;;;;5068092;28;20342;-50
2021/12/10 07:01:14;;;;;;;;;;;-1.00;99.90;;;;;;5068468;28;20353;-50
2021/12/10 07:03:41;;;;;;;;;;;-1.20;99.90;;;;;;5075473;28;19924;-50
2021/12/10 07:06:08;;;;;;;;;;;-1.20;99.90;;;;;;5075471;28;20309;-50
2021/12/10 07:08:36;;;;;;;;;;;-1.50;99.90;;;;;;5075453;28;19978;-50
2021/12/10 07:11:04;;;;;;;;;;;-1.70;99.90;;;;;;5069274;28;20375;-50
2021/12/10 07:13:34;;;;;;;;;;;-1.80;99.90;;;;;;5074325;28;19928;-50
2021/12/10 07:16:00;;;;;;;;;;;-1.60;99.90;;;;;;5073558;28;19924;-50
2021/12/10 07:18:27;;;;;;;;;;;-1.50;99.90;;;;;;5071932;28;19924;-50
2021/12/10 07:20:55;;;;;;;;;;;-1.30;99.90;;;;;;5065483;28;19978;-49
2021/12/10 07:23:23;;;;;;;;;;;-1.20;99.90;;;;;;5070954;28;19924;-50
2021/12/10 07:25:50;;;;;;;;;;;-1.10;99.90;;;;;;5074229;28;19985;-50
2021/12/10 07:28:17;;;;;;;;;;;-1.30;99.90;;;;;;5073694;28;19936;-50
2021/12/10 07:30:47;;;;;;;;;;;-1.10;99.90;;;;;;5074043;28;19981;-50
2021/12/10 07:33:14;;;;;;;;;;;-1.30;99.90;;;;;;5073093;28;20315;-50
2021/12/10 07:35:41;;;;;;;;;;;-1.20;99.90;;;;;;5057661;28;19979;-50
2021/12/10 07:38:09;;;;;;;;;;;-1.40;99.90;;;;;;5062878;28;19932;-53
2021/12/10 07:40:37;;;;;;;;;;;-1.40;99.90;;;;;;5056035;28;19952;-51
2021/12/10 07:43:04;;;;;;;;;;;-1.50;99.90;;;;;;5073266;28;19970;-50
2021/12/10 07:45:31;;;;;;;;;;;-1.50;99.90;;;;;;5073961;28;20394;-52
2021/12/10 07:48:03;;;;;;;;;;;-1.50;99.90;;;;;;5073892;28;19925;-49
2021/12/10 07:50:32;;;;;;;;;;;-1.40;99.90;;;;;;5073506;28;19999;-50
2021/12/10 07:53:00;;;;;;;;;;;-1.50;99.90;;;;;;5073552;28;19932;-50
2021/12/10 07:55:27;;;;;;;;;;;-1.40;99.90;;;;;;5073362;28;19952;-52
2021/12/10 07:57:55;;;;;;;;;;;-1.30;99.90;;;;;;5074014;28;20382;-53
2021/12/10 08:00:24;;;;;;;;;;;-1.20;99.90;;;;;;5073143;28;19977;-51
2021/12/10 08:02:51;;;;;;;;;;;-1.00;99.90;;;;;;5074039;28;19924;-53
2021/12/10 08:05:21;;;;;;;;;;;-0.90;99.90;;;;;;5073078;28;19928;-52
2021/12/10 08:07:48;;;;;;;;;;;-0.70;99.90;;;;;;5074230;28;19925;-51
2021/12/10 08:10:15;;;;;;;;;;;-0.70;99.90;;;;;;5067899;28;19924;-52
2021/12/10 08:12:43;;;;;;;;;;;-0.70;99.90;;;;;;5058532;28;19925;-51
2021/12/10 08:15:10;;;;;;;;;;;-0.50;99.90;;;;;;5053833;28;19929;-52
2021/12/10 08:17:37;;;;;;;;;;;-0.40;99.90;;;;;;5053805;28;20449;-51
2021/12/10 08:20:05;;;;;;;;;;;-0.30;99.90;;;;;;5066101;28;19924;-52
2021/12/10 08:22:33;;;;;;;;;;;-0.30;99.90;;;;;;5053308;28;19925;-52
2021/12/10 08:25:00;;;;;;;;;;;-0.30;99.90;;;;;;5053905;28;19929;-51
2021/12/10 08:27:28;;;;;;;;;;;-0.50;99.90;;;;;;5053641;28;19929;-51
2021/12/10 08:29:58;;;;;;;;;;;-0.40;99.90;;;;;;5053362;28;19975;-52
2021/12/10 08:32:25;;;;;;;;;;;-0.30;99.90;;;;;;5061629;28;20391;-51
2021/12/10 08:34:52;;;;;;;;;;;-0.10;99.90;;;;;;5070574;28;19928;-51
2021/12/10 08:37:19;;;;;;;;;;;-0.30;99.90;;;;;;5070079;28;19933;-51
2021/12/10 08:39:48;;;;;;;;;;;-0.30;99.90;;;;;;5060402;28;19924;-51
2021/12/10 08:42:16;;;;;;;;;;;-0.40;99.90;;;;;;5052528;28;19925;-51
2021/12/10 08:44:43;;;;;;;;;;;-0.30;99.90;;;;;;5064958;28;19928;-52
2021/12/10 08:47:10;;;;;;;;;;;-0.30;99.90;;;;;;5073181;28;19928;-52
2021/12/10 08:49:37;;;;;;;;;;;-0.20;99.90;;;;;;5073275;28;19928;-50
2021/12/10 08:52:06;;;;;;;;;;;-0.20;99.90;;;;;;5072742;28;20403;-50
2021/12/10 08:54:33;;;;;;;;;;;-0.20;99.90;;;;;;5073122;28;19925;-50
2021/12/10 08:57:02;;;;;;;;;;;-0.10;99.90;;;;;;5072907;28;19970;-51
2021/12/10 08:59:29;;;;;;;;;;;0.00;99.90;;;;;;5073329;28;19928;-51
2021/12/10 09:01:57;;;;;;;;;;;0.30;99.90;;;;;;5066536;28;19928;-49
2021/12/10 09:04:25;;;;;;;;;;;0.50;99.90;;;;;;5060675;28;19925;-52
2021/12/10 09:06:55;;;;;;;;;;;0.70;99.90;;;;;;5072764;28;19978;-51
2021/12/10 09:09:23;;;;;;;;;;;0.90;99.90;;;;;;5072692;28;20000;-51
2021/12/10 09:11:51;;;;;;;;;;;1.10;99.90;;;;;;5055145;28;19925;-51
2021/12/10 09:14:21;;;;;;;;;;;1.30;99.90;;;;;;5061274;28;20340;-53
2021/12/10 09:16:48;;;;;;;;;;;1.50;99.90;;;;;;5060287;28;19929;-51
2021/12/10 09:19:19;;;;;;;;;;;1.30;99.90;;;;;;5056965;28;19963;-52
2021/12/10 09:21:46;;;;;;;;;;;1.30;99.90;;;;;;5062785;28;19971;-56
2021/12/10 09:24:14;;;;;;;;;;;1.40;99.90;;;;;;5072227;28;19939;-52
2021/12/10 09:26:44;;;;;;;;;;;1.40;99.90;;;;;;5072319;28;19924;-53
2021/12/10 09:29:12;;;;;;;;;;;1.70;99.90;;;;;;5072441;28;20336;-53
2021/12/10 09:31:42;;;;;;;;;;;1.80;99.90;;;;;;5071746;28;19928;-52
2021/12/10 09:34:09;;;;;;;;;;;1.70;99.90;;;;;;5072341;28;19964;-53
2021/12/10 09:36:38;;;;;;;;;;;1.70;99.90;;;;;;5071640;28;21595;-51
2021/12/10 09:39:06;;;;;;;;;;;1.70;99.90;;;;;;5070473;28;19925;-52
2021/12/10 09:41:32;;;;;;;;;;;1.60;99.90;;;;;;5063387;28;19924;-52
2021/12/10 09:43:59;;;;;;;;;;;1.60;99.90;;;;;;5070814;28;19930;-52
2021/12/10 09:46:26;;;;;;;;;;;1.70;99.90;;;;;;5066112;28;20307;-52
2021/12/10 09:48:54;;;;;;;;;;;1.70;99.90;;;;;;5062415;28;19924;-52
2021/12/10 09:51:24;;;;;;;;;;;1.60;99.90;;;;;;5058618;28;19997;-52
2021/12/10 09:53:53;;;;;;;;;;;1.50;99.90;;;;;;5071215;28;19925;-53
2021/12/10 09:56:20;;;;;;;;;;;1.70;99.90;;;;;;5070882;28;19985;-52
2021/12/10 09:58:47;;;;;;;;;;;1.60;99.90;;;;;;5067823;28;19946;-52
2021/12/10 10:01:15;;;;;;;;;;;1.30;99.90;;;;;;5058865;28;19925;-51
2021/12/10 10:03:43;;;;;;;;;;;1.20;99.90;;;;;;5061231;28;19928;-52
2021/12/10 10:06:12;;;;;;;;;;;1.20;99.90;;;;;;5071142;28;19974;-51
2021/12/10 10:08:39;;;;;;;;;;;1.30;99.90;;;;;;5071528;28;19925;-52
2021/12/10 10:11:08;;;;;;;;;;;1.50;99.90;;;;;;5071303;28;19925;-51
2021/12/10 10:13:37;;;;;;;;;;;1.80;99.90;;;;;;5053846;28;19924;-51
2021/12/10 10:16:04;;;;;;;;;;;2.00;99.90;;;;;;5070992;28;20002;-54
2021/12/10 10:18:33;;;;;;;;;;;1.90;99.90;;;;;;5071523;28;19924;-53
2021/12/10 10:21:01;;;;;;;;;;;2.00;99.90;;;;;;5069911;28;20662;-51
2021/12/10 10:23:30;;;;;;;;;;;2.00;99.90;;;;;;5071286;28;20337;-52
2021/12/10 10:25:58;;;;;;;;;;;2.10;99.90;;;;;;5071143;28;19925;-51
2021/12/10 10:28:25;;;;;;;;;;;2.30;99.90;;;;;;5071724;28;19928;-52
2021/12/10 10:30:57;;;;;;;;;;;2.40;99.90;;;;;;5069484;28;19924;-53
2021/12/10 10:33:24;;;;;;;;;;;2.40;99.90;;;;;;5071174;28;19931;-53
2021/12/10 10:35:53;;;;;;;;;;;2.40;99.90;;;;;;5061831;28;19925;-52
2021/12/10 10:38:20;;;;;;;;;;;2.50;99.90;;;;;;5071156;28;19994;-55
2021/12/10 10:40:52;;;;;;;;;;;2.40;99.90;;;;;;5070754;28;20386;-52
2021/12/10 10:43:19;;;;;;;;;;;2.40;99.90;;;;;;5071071;28;19928;-52
2021/12/10 10:45:46;;;;;;;;;;;2.10;99.90;;;;;;5071508;28;19998;-54
2021/12/10 10:48:15;;;;;;;;;;;1.80;99.90;;;;;;5071511;28;19978;-52
2021/12/10 10:50:47;;;;;;;;;;;1.80;99.90;;;;;;5070950;28;19924;-53
2021/12/10 10:53:15;;;;;;;;;;;1.90;99.90;;;;;;5071234;28;19924;-52
2021/12/10 10:55:46;;;;;;;;;;;2.20;99.90;;;;;;5070985;28;19978;-51
2021/12/10 10:58:15;;;;;;;;;;;2.40;99.90;;;;;;5071346;28;19924;-52
2021/12/10 11:00:49;;;;;;;;;;;2.40;99.90;;;;;;5071035;28;19925;-52
2021/12/10 11:03:18;;;;;;;;;;;2.10;99.90;;;;;;5071217;28;19939;-52
2021/12/10 11:05:47;;;;;;;;;;;1.70;99.90;;;;;;5069991;28;20463;-53
2021/12/10 11:08:14;;;;;;;;;;;1.70;99.90;;;;;;5071300;28;19951;-52
2021/12/10 11:10:42;;;;;;;;;;;1.80;99.90;;;;;;5074333;28;19986;-52
2021/12/10 11:13:11;;;;;;;;;;;2.10;99.90;;;;;;5074685;28;19986;-54
2021/12/10 11:15:40;;;;;;;;;;;2.10;99.90;;;;;;5075107;28;19924;-53
2021/12/10 11:18:14;;;;;;;;;;;2.20;99.90;;;;;;5074970;28;19932;-52
2021/12/10 11:20:42;;;;;;;;;;;2.40;99.90;;;;;;5074210;28;20004;-54
2021/12/10 11:23:13;;;;;;;;;;;2.30;99.90;;;;;;5074256;28;19952;-52
2021/12/10 11:25:41;;;;;;;;;;;2.50;99.90;;;;;;5074717;28;19975;-53
2021/12/10 11:28:09;;;;;;;;;;;2.70;99.90;;;;;;5074472;28;19978;-52
2021/12/10 11:30:40;;;;;;;;;;;2.80;99.90;;;;;;5074135;28;19928;-52
2021/12/10 11:33:09;;;;;;;;;;;2.50;99.90;;;;;;5074297;28;19925;-52
2021/12/10 11:35:38;;;;;;;;;;;2.40;99.90;;;;;;5074679;28;19924;-52
2021/12/10 11:38:06;;;;;;;;;;;2.50;99.90;;;;;;5074334;28;19928;-51
2021/12/10 11:40:38;;;;;;;;;;;2.60;99.90;;;;;;5074112;28;19924;-53
2021/12/10 11:43:18;;;;;;;;;;;2.60;99.90;;;;;;5073777;28;19931;-51
2021/12/10 11:46:03;;;;;;;;;;;2.70;99.90;;;;;;5069592;28;20392;-52
2021/12/10 11:48:32;;;;;;;;;;;2.90;99.90;;;;;;5074738;28;19924;-52
2021/12/10 11:51:01;;;;;;;;;;;2.90;99.90;;;;;;5073292;28;20001;-53
2021/12/10 11:53:35;;;;;;;;;;;3.20;99.90;;;;;;5059151;28;20456;-52
2021/12/10 11:56:05;;;;;;;;;;;3.30;99.90;;;;;;5074259;28;20452;-52
2021/12/10 11:58:32;;;;;;;;;;;3.30;99.90;;;;;;5074584;28;20374;-53
2021/12/10 12:00:59;;;;;;;;;;;3.40;99.90;;;;;;5073566;28;20357;-51
2021/12/10 12:03:29;;;;;;;;;;;3.20;99.90;;;;;;5073293;28;19982;-52
2021/12/10 12:05:58;;;;;;;;;;;3.10;99.90;;;;;;5072367;28;19928;-52
2021/12/10 12:08:25;;;;;;;;;;;3.00;99.90;;;;;;5074006;28;19925;-52
2021/12/10 12:10:55;;;;;;;;;;;3.00;99.90;;;;;;5073411;28;19924;-52
2021/12/10 12:13:27;;;;;;;;;;;3.00;99.90;;;;;;5074017;28;19950;-53
2021/12/10 12:15:56;;;;;;;;;;;3.10;99.90;;;;;;5074125;28;19925;-53
2021/12/10 12:18:26;;;;;;;;;;;3.10;99.90;;;;;;5073633;28;19932;-52
2021/12/10 12:20:55;;;;;;;;;;;3.10;99.90;;;;;;5071703;28;19932;-53
2021/12/10 12:26:11;;;;;;;;;;;3.20;99.90;;;;;;5059781;28;19975;-52
2021/12/10 12:28:39;;;;;;;;;;;3.30;99.90;;;;;;5061857;28;19970;-53
2021/12/10 12:31:07;;;;;;;;;;;3.10;99.90;;;;;;5073078;28;19924;-52
2021/12/10 12:33:49;;;;;;;;;;;2.90;99.90;;;;;;5073392;28;20329;-53
2021/12/10 12:36:16;;;;;;;;;;;2.70;99.90;;;;;;5073482;28;20463;-52
2021/12/10 12:38:45;;;;;;;;;;;2.60;99.90;;;;;;5073286;28;19925;-52
2021/12/10 12:41:15;;;;;;;;;;;2.60;99.90;;;;;;5072344;28;19924;-54
2021/12/10 12:43:43;;;;;;;;;;;2.70;99.90;;;;;;5072689;28;19970;-52
2021/12/10 12:46:11;;;;;;;;;;;2.80;99.90;;;;;;5072562;28;20275;-54
2021/12/10 12:48:53;;;;;;;;;;;2.80;99.90;;;;;;5073397;28;19977;-53
2021/12/10 12:51:21;;;;;;;;;;;2.80;99.90;;;;;;5072804;28;19978;-53
2021/12/10 12:53:50;;;;;;;;;;;2.80;99.90;;;;;;5073681;28;19942;-52
2021/12/10 12:56:18;;;;;;;;;;;2.90;99.90;;;;;;5073413;28;19929;-52
2021/12/10 12:58:47;;;;;;;;;;;3.10;99.90;;;;;;5073202;28;19928;-51
2021/12/10 13:01:17;;;;;;;;;;;3.10;99.90;;;;;;5071885;28;19924;-51
2021/12/10 13:03:46;;;;;;;;;;;2.90;99.90;;;;;;5073543;28;19925;-51
2021/12/10 13:06:15;;;;;;;;;;;2.60;99.90;;;;;;5072337;28;19932;-50
2021/12/10 13:08:44;;;;;;;;;;;2.30;99.90;;;;;;5073130;28;19932;-52
2021/12/10 13:11:19;;;;;;;;;;;2.40;99.90;;;;;;5072524;28;20379;-51
2021/12/10 13:13:47;;;;;;;;;;;2.50;99.90;;;;;;5072893;28;19924;-52
2021/12/10 13:16:15;;;;;;;;;;;2.70;99.90;;;;;;5072814;28;19929;-52
2021/12/10 13:18:42;;;;;;;;;;;2.70;99.90;;;;;;5073083;28;19982;-52
2021/12/10 13:21:11;;;;;;;;;;;2.50;99.90;;;;;;5072289;28;19929;-53
2021/12/10 13:23:38;;;;;;;;;;;2.50;99.90;;;;;;5072811;28;19932;-53
2021/12/10 13:26:06;;;;;;;;;;;2.40;99.90;;;;;;5072779;28;19993;-51
2021/12/10 13:28:34;;;;;;;;;;;2.40;99.90;;;;;;5072817;28;19947;-52
2021/12/10 13:31:02;;;;;;;;;;;2.50;99.90;;;;;;5071912;28;19962;-52
2021/12/10 13:33:30;;;;;;;;;;;2.50;99.90;;;;;;5072685;28;19946;-52
2021/12/10 13:35:58;;;;;;;;;;;2.50;99.90;;;;;;5072331;28;19970;-51
2021/12/10 13:38:25;;;;;;;;;;;2.50;99.90;;;;;;5072677;28;19935;-51
2021/12/10 13:40:53;;;;;;;;;;;2.30;99.90;;;;;;5072333;28;19932;-52
2021/12/10 13:43:20;;;;;;;;;;;2.40;99.90;;;;;;5072715;28;19924;-52
2021/12/10 13:45:59;;;;;;;;;;;2.40;99.90;;;;;;5072740;28;19924;-51
2021/12/10 13:48:37;;;;;;;;;;;2.40;99.90;;;;;;5072728;28;19963;-51
2021/12/10 13:51:05;;;;;;;;;;;2.40;99.90;;;;;;5071852;28;20448;-52
2021/12/10 13:53:31;;;;;;;;;;;2.50;99.90;;;;;;5072656;28;19928;-51
2021/12/10 13:55:59;;;;;;;;;;;2.50;99.90;;;;;;5072330;28;19928;-52
2021/12/10 13:58:33;;;;;;;;;;;2.40;99.90;;;;;;5072604;28;19925;-52
2021/12/10 14:01:05;;;;;;;;;;;2.60;99.90;;;;;;5071212;28;19924;-51
2021/12/10 14:03:56;;;;;;;;;;;2.20;99.90;;;;;;5072254;28;19982;-54
2021/12/10 14:06:32;;;;;;;;;;;2.30;99.90;;;;;;5051578;28;19925;-52
2021/12/10 14:09:28;;;;;;;;;;;2.40;99.90;;;;;;5072300;28;19930;-51
2021/12/10 14:12:11;;;;;;;;;;;2.30;99.90;;;;;;5053477;28;20004;-52
2021/12/10 14:14:39;;;;;;;;;;;2.50;99.90;;;;;;5072434;28;19978;-51
2021/12/10 14:17:09;;;;;;;;;;;3.00;99.90;;;;;;5071636;28;20341;-50
2021/12/10 14:19:36;;;;;;;;;;;3.20;99.90;;;;;;5072006;28;19925;-52
2021/12/10 14:22:04;;;;;;;;;;;3.20;99.90;;;;;;5070947;28;19925;-52
2021/12/10 14:24:33;;;;;;;;;;;3.20;99.90;;;;;;5072170;28;20452;-51
2021/12/10 14:27:05;;;;;;;;;;;3.30;99.90;;;;;;5069752;28;19932;-50
2021/12/10 14:29:32;;;;;;;;;;;3.30;99.90;;;;;;5052167;28;19928;-50
2021/12/10 14:31:58;;;;;;;;;;;3.20;99.90;;;;;;5053568;28;19979;-51
2021/12/10 14:34:26;;;;;;;;;;;3.30;99.90;;;;;;5071449;28;19929;-51
2021/12/10 14:36:59;;;;;;;;;;;3.20;99.90;;;;;;5071825;28;20390;-50
2021/12/10 14:39:26;;;;;;;;;;;3.20;99.90;;;;;;5072198;28;20378;-50